Terminal Aerodrome Forecast
Issued by NWS Portland, OR

Home | Current Version | Previous Version | Text Only | Print | Product List | Glossary On
Versions: 1 2 3 4 5 6 7 8 9 10 11 12 13 14 15 16 17 18 19 20 21 22
000
FTUS46 KPQR 021724
TAFTTD
TAF
KTTD 021724Z 0218/0318 VRB03KT P6SM -SHRA FEW007 BKN040 OVC080
     FM022100 12009KT P6SM -RA SCT020 OVC035
     FM030300 VRB04KT P6SM -SHRA BKN035 OVC050
     FM030600 00000KT P6SM -DZ BKN015 OVC025
     FM031200 00000KT P6SM OVC015=

USA.gov is the U.S. government's official web portal to all federal, state and local government web resources and services.